• Join FlightAware (Why Join?)
  • Login
  • US Flag 
10:12AM EDT


 

Airport Tracker/Info


-or-


 

Live Flight TrackerFlight Track Log ✈ KAP910 ✈ 09-May-2013 ✈ KBOS - KACK

Flight Track Log - Related Links

Times and Time Zones

All times are in EDT time to prevent confusion due to time zone crossing. See the KAP910 flight status page for this flight to view local times or setup timezone preferences in your user account.

Time Position Orientation Groundspeed Altitude Reporting Facility
EDT Latitude Longitude Course Direction KTS MPH feet Rate Location/Type
10:15AM 42.3500 -70.9833 180° South 114 131 600  Level KA90
10:16AM 42.3500 -70.9333 90° East 119 137 1,100 540 Climbing KA90
10:17AM 42.3333 -70.8833 114° Southeast 125 144 1,700 540 Climbing KA90
10:18AM 42.3167 -70.8500 124° Southeast 123 142 2,200 420 Climbing KA90
10:19AM 42.2833 -70.8167 144° Southeast 135 155 2,600 360 Climbing KA90
10:20AM 42.2667 -70.7833 124° Southeast 140 161 3,000 420 Climbing KA90
10:21AM 42.2333 -70.7500 143° Southeast 133 153 3,500 420 Climbing KA90
10:23AM 42.1833 -70.7333 166° South 137 158 3,900 360 Climbing KA90
10:24AM 42.1768 -70.6873 101° East  Level FlightAware Approximate
10:31AM 41.9605 -70.5386 114° Southeast  Level Estimated
10:32AM 41.9657 -70.4925 81° East  Level FlightAware Approximate
10:33AM 41.9709 -70.4464 81° East  Level FlightAware Approximate
10:34AM 41.9761 -70.4002 81° East  Level FlightAware Approximate
10:35AM 41.9813 -70.3541 81° East  Level FlightAware Approximate
10:36AM 41.9864 -70.3079 81° East  Level FlightAware Approximate
10:37AM 41.9916 -70.2617 81° East  Level FlightAware Approximate
10:38AM 41.9967 -70.2156 82° East  Level FlightAware Approximate
10:39AM 41.9624 -70.2083 180° South  Level Estimated
10:40AM 41.9297 -70.1925 160° South  Level FlightAware Approximate
10:41AM 41.8971 -70.1766 160° South  Level FlightAware Approximate
10:42AM 41.8645 -70.1608 160° South  Level FlightAware Approximate
10:43AM 41.8318 -70.1450 160° South  Level FlightAware Approximate
10:44AM 41.7992 -70.1292 160° South  Level FlightAware Approximate
10:45AM 41.7665 -70.1135 160° South  Level FlightAware Approximate
10:46AM 41.7339 -70.0977 160° South  Level FlightAware Approximate
10:47AM 41.7012 -70.0820 160° South  Level FlightAware Approximate
10:48AM 41.6686 -70.0663 160° South  Level FlightAware Approximate
10:49AM 41.6359 -70.0506 160° South  Level FlightAware Approximate
10:50AM 41.6033 -70.0349 160° South  Level FlightAware Approximate
10:51AM 41.5847 -70.0364 189° South  Level FlightAware Approximate
10:52AM 41.5503 -70.0433 189° South  Level FlightAware Approximate
10:53AM 41.5160 -70.0500 180° South  Level FlightAware Approximate
10:54AM 41.4813 -70.0500 180° South  Level FlightAware Approximate
10:55AM 41.4466 -70.0500 180° South  Level FlightAware Approximate
10:56AM 41.4119 -70.0500 180° South  Level FlightAware Approximate
10:57AM 41.3772 -70.0500 180° South  Level FlightAware Approximate
10:58AM 41.3425 -70.0500 180° South  Level FlightAware Approximate
10:59AM 41.3078 -70.0500 180° South  Level FlightAware Approximate